Impacts TAF Board
For situational awareness. Not to be used for flight planning purposes.
IDs:

KLGA - New York/La Guardia, NY, US

Issued at 1541 UTC 01 Mar 2021
Updated at 1647 UTC 01 Mar 2021
Potential Impact None Slight Moderate High
Time1617Z 01/17Z 01/18Z 01/19Z 01/20Z 01/21Z 01/22Z 01/23Z 02/00Z 02/01Z 02/02Z 02/03Z 02/04Z 02/05Z>>
Type OBS PRVL PRVL
  [TEMP]  
PRVL
  [TEMP]  
PRVL
  [TEMP]  
PRVL PRVL PRVL PRVL PRVL PRVL PRVL PRVL PRVL
VIS 10 5 >6 >6 >6 >6 >6 >6 >6 >6 >6 >6 >6 >6
CIG 34 12 20
  [40]  
20
  [40]  
20
  [40]  
-- -- -- -- -- -- -- -- --
Cover OVC OVC OVC
  [BKN]  
OVC
  [BKN]  
OVC
  [BKN]  
SCT SCT SCT SCT SCT SCT SCT SCT SCT
FltCat VFR MVFR MVFR
  [VFR]  
MVFR
  [VFR]  
MVFR
  [VFR]  
VFR VFR VFR VFR VFR VFR VFR VFR VFR
WX -- BR --
  [--]  
--
  [--]  
--
  [--]  
-- -- -- -- -- -- -- -- --
WDir 280 260 280
[280]
280
[280]
280
[280]
300 300 300 300 300 300 300 300 300
WSpd 6 8 14
  [14]  
14
  [14]  
14
  [14]  
19 19 19 19 25 25 25 25 25
WGst -- -- --
  [--]  
--
  [--]  
--
  [--]  
34 34 34 34 42 42 42 42 42
Raw TAF
KLGA 011541Z 0116/0218 26008KT 5SM BR BKN012 OVC020
  FM011800 28014KT P6SM SCT015 BKN020 OVC035
  TEMPO 0118/0121 SCT020 BKN040
  FM012100 30019G34KT P6SM SCT050
  FM020100 30025G42KT P6SM SCT050
  FM020600 30024G39KT P6SM SCT050
  FM021200 31020G31KT P6SM FEW050


Raw METAR
KLGA 011617Z 28006KT 10SM SCT012 BKN034 OVC070 08/04 A2962 RMK AO2 T00780044
KLGA 011551Z 26007KT 8SM FEW005 BKN011 OVC047 07/04 A2962 RMK AO2 RAB22E29 SLP029 P0000 T00720044
KLGA 011523Z 27008KT 5SM -RA BKN012 BKN020 OVC080 08/04 A2961 RMK AO2 RAB22 P0000 T00780044
KLGA 011451Z 24007KT 3SM BR FEW007 SCT010 BKN120 OVC180 07/05 A2961 RMK AO2 SFC VIS 5 SLP028 60002 T00720050 56028
KLGA 011351Z 24004KT 3SM BR SCT006 SCT120 OVC160 07/05 A2963 RMK AO2 SFC VIS 5 RAE00 SLP032 P0000 T00670050
KLGA 011339Z 20003KT 3SM BR BKN006 OVC120 07/05 A2962 RMK AO2 SFC VIS 5 RAE00 P0000 T00670050

METAR Board
Radar Display
Forecast Discussion
For situational awareness. Not to be used for flight planning purposes.